Time;durP1;ratioP1;P1;durP2;ratioP2;P2;SDS_P1;SDS_P2;PMS_P1;PMS_P2;Temp;Humidity;BMP_temperature;BMP_pressure;BME280_temperature;BME280_humidity;BME280_pressure;Samples;Min_cycle;Max_cycle;Signal;HPM_P1;HPM_P2
2021/10/01 00:00:05;;;;;;;1.30;0.80;;;16.20;67.50;;;;;;5065260;28;20477;-82
2021/10/01 00:02:31;;;;;;;1.10;1.00;;;16.20;67.50;;;;;;5061028;28;20659;-82
2021/10/01 00:04:57;;;;;;;1.67;1.00;;;16.20;67.50;;;;;;5045760;28;20036;-82
2021/10/01 00:07:23;;;;;;;1.13;0.90;;;16.10;67.40;;;;;;5049002;28;20108;-82
2021/10/01 00:09:48;;;;;;;1.20;1.02;;;16.10;67.50;;;;;;5070065;28;20037;-83
2021/10/01 00:12:14;;;;;;;1.08;0.90;;;16.10;67.40;;;;;;5058800;28;20393;-82
2021/10/01 00:14:40;;;;;;;0.98;0.85;;;16.10;67.50;;;;;;5053894;28;20044;-81
2021/10/01 00:17:06;;;;;;;0.85;0.85;;;16.20;67.50;;;;;;5057165;28;20028;-81
2021/10/01 00:19:34;;;;;;;1.10;0.90;;;16.10;67.50;;;;;;5059924;28;20041;-82
2021/10/01 00:22:02;;;;;;;0.80;0.80;;;16.20;67.50;;;;;;5065460;28;20081;-83
2021/10/01 00:24:32;;;;;;;1.88;1.10;;;16.10;67.50;;;;;;5051938;28;20029;-82
2021/10/01 00:26:58;;;;;;;0.88;0.80;;;16.10;67.50;;;;;;5051918;28;20033;-82
2021/10/01 00:29:24;;;;;;;1.13;0.90;;;16.10;67.50;;;;;;5069483;28;20059;-82
2021/10/01 00:31:50;;;;;;;1.30;0.90;;;16.10;67.50;;;;;;5064513;28;20480;-82
2021/10/01 00:34:16;;;;;;;1.40;0.90;;;16.10;67.50;;;;;;5038485;28;20044;-83
2021/10/01 00:36:42;;;;;;;0.88;0.75;;;16.10;67.50;;;;;;5063940;28;20028;-82
2021/10/01 00:39:08;;;;;;;0.80;0.80;;;16.10;67.50;;;;;;5037032;28;20492;-82
2021/10/01 00:41:36;;;;;;;1.67;0.93;;;16.10;67.50;;;;;;5050497;28;20032;-82
2021/10/01 00:44:02;;;;;;;0.98;0.82;;;16.00;67.50;;;;;;5066146;28;20031;-82
2021/10/01 00:46:28;;;;;;;1.90;0.95;;;16.00;67.50;;;;;;5063529;28;20532;-82
2021/10/01 00:48:55;;;;;;;1.02;0.80;;;16.10;67.60;;;;;;5051749;28;20124;-82
2021/10/01 00:51:23;;;;;;;0.95;0.93;;;16.00;67.50;;;;;;5056889;28;20053;-82
2021/10/01 00:53:51;;;;;;;1.08;0.85;;;16.00;67.60;;;;;;5038851;28;20481;-82
2021/10/01 00:56:17;;;;;;;1.65;0.90;;;16.00;67.50;;;;;;5058704;28;20036;-82
2021/10/01 00:58:43;;;;;;;0.80;0.80;;;16.00;67.60;;;;;;5037613;28;20029;-82
2021/10/01 01:01:12;;;;;;;1.25;0.90;;;16.00;67.60;;;;;;5014382;28;20128;-83
2021/10/01 01:03:45;;;;;;;0.80;0.80;;;16.00;67.60;;;;;;5046488;28;20047;-82
2021/10/01 01:06:16;;;;;;;0.98;0.88;;;16.00;67.60;;;;;;5061463;28;20037;-82
2021/10/01 01:09:13;;;;;;;1.67;1.10;;;16.00;67.60;;;;;;5061774;28;20032;-82
2021/10/01 01:12:08;;;;;;;0.90;0.82;;;16.00;67.70;;;;;;5033412;28;20112;-82
2021/10/01 01:14:57;;;;;;;1.58;0.90;;;15.90;67.60;;;;;;5067199;28;20072;-82
2021/10/01 01:17:53;;;;;;;1.65;1.00;;;16.00;67.70;;;;;;5058203;28;20041;-82
2021/10/01 01:20:39;;;;;;;1.02;0.80;;;15.90;67.60;;;;;;5040798;28;20036;-82
2021/10/01 01:23:26;;;;;;;0.80;0.80;;;15.90;67.60;;;;;;5042228;28;20029;-82
2021/10/01 01:26:26;;;;;;;0.70;0.70;;;15.90;67.70;;;;;;5044816;28;20037;-82
2021/10/01 01:29:29;;;;;;;0.82;0.80;;;15.90;67.70;;;;;;5049432;28;20116;-83
2021/10/01 01:31:55;;;;;;;0.98;0.88;;;15.90;67.80;;;;;;5048523;28;20055;-82
2021/10/01 01:34:32;;;;;;;0.93;0.82;;;15.90;67.60;;;;;;5061207;28;20473;-82
2021/10/01 01:37:03;;;;;;;1.65;0.93;;;15.90;67.80;;;;;;5051040;28;20037;-81
2021/10/01 01:39:33;;;;;;;1.40;1.00;;;15.90;67.70;;;;;;5050307;28;20111;-83
2021/10/01 01:42:00;;;;;;;0.80;0.80;;;15.90;67.70;;;;;;5051044;28;20032;-82
2021/10/01 01:44:28;;;;;;;1.35;0.90;;;15.90;67.70;;;;;;5059509;28;20508;-82
2021/10/01 01:46:57;;;;;;;1.10;1.00;;;15.90;67.70;;;;;;5034521;28;20052;-82
2021/10/01 01:49:24;;;;;;;1.38;0.95;;;15.90;67.70;;;;;;5058904;28;20047;-82
2021/10/01 01:51:50;;;;;;;0.80;0.80;;;15.90;67.70;;;;;;5035507;28;20067;-82
2021/10/01 01:54:19;;;;;;;1.02;0.93;;;15.90;67.70;;;;;;5049529;28;20429;-83
2021/10/01 01:56:46;;;;;;;2.00;0.93;;;15.90;67.70;;;;;;5063851;28;20045;-82
2021/10/01 01:59:13;;;;;;;0.98;0.70;;;15.90;67.70;;;;;;5055568;28;20025;-82
2021/10/01 02:01:42;;;;;;;1.40;0.80;;;15.90;67.60;;;;;;5051089;28;20033;-82
2021/10/01 02:04:21;;;;;;;1.10;1.00;;;15.90;67.60;;;;;;5036877;28;20029;-81
2021/10/01 02:06:50;;;;;;;1.48;0.80;;;15.90;67.60;;;;;;5055363;28;20396;-82
2021/10/01 02:09:17;;;;;;;1.05;0.80;;;15.90;67.70;;;;;;5056299;28;20059;-82
2021/10/01 02:11:46;;;;;;;0.65;0.65;;;15.90;67.70;;;;;;5051763;28;20028;-82
2021/10/01 02:14:24;;;;;;;0.80;0.80;;;15.80;67.70;;;;;;5029705;28;20506;-82
2021/10/01 02:16:52;;;;;;;1.60;0.93;;;15.80;67.60;;;;;;5056369;28;20029;-81
2021/10/01 02:19:20;;;;;;;1.13;0.80;;;15.80;67.70;;;;;;5047711;28;20056;-82
2021/10/01 02:21:49;;;;;;;0.77;0.70;;;15.80;67.70;;;;;;5068805;28;20028;-82
2021/10/01 02:24:17;;;;;;;0.85;0.70;;;15.80;67.70;;;;;;5045700;28;20067;-82
2021/10/01 02:27:00;;;;;;;0.80;0.80;;;15.90;67.70;;;;;;5028078;28;20013;-82
2021/10/01 02:29:41;;;;;;;2.03;0.90;;;15.80;67.80;;;;;;5076675;28;20060;-82
2021/10/01 02:32:29;;;;;;;1.77;0.80;;;15.90;67.80;;;;;;5055834;28;20024;-81
2021/10/01 02:34:55;;;;;;;1.85;0.80;;;15.80;67.70;;;;;;5050011;28;20040;-82
2021/10/01 02:37:23;;;;;;;1.08;0.93;;;15.80;67.60;;;;;;5034952;28;20037;-82
2021/10/01 02:39:51;;;;;;;1.02;0.75;;;15.80;67.70;;;;;;5040909;28;20059;-82
2021/10/01 02:42:18;;;;;;;0.70;0.70;;;15.80;67.70;;;;;;5043950;28;20021;-82
2021/10/01 02:44:45;;;;;;;1.10;0.77;;;15.80;67.70;;;;;;5037087;28;20091;-82
2021/10/01 02:47:13;;;;;;;0.80;0.80;;;15.80;67.80;;;;;;5026078;28;20051;-82
2021/10/01 02:49:40;;;;;;;0.80;0.80;;;15.80;67.70;;;;;;5041328;28;20036;-83
2021/10/01 02:52:32;;;;;;;0.70;0.70;;;15.80;67.70;;;;;;5069016;28;20028;-81
2021/10/01 02:55:37;;;;;;;0.75;0.70;;;15.80;67.90;;;;;;5049150;28;20036;-82
2021/10/01 02:58:08;;;;;;;;;;;15.80;67.70;;;;;;5056063;28;20037;-82
2021/10/01 03:00:35;;;;;;;0.63;0.63;;;15.80;67.70;;;;;;5061374;28;19912;-82
2021/10/01 03:03:07;;;;;;;0.70;0.70;;;15.80;67.60;;;;;;5062274;28;20036;-82
2021/10/01 03:05:33;;;;;;;1.10;0.80;;;15.80;67.80;;;;;;5068274;28;20105;-83
2021/10/01 03:07:59;;;;;;;1.08;0.98;;;15.80;67.90;;;;;;5067741;28;20037;-82
2021/10/01 03:10:26;;;;;;;0.70;0.70;;;15.80;68.10;;;;;;5067458;28;20033;-82
2021/10/01 03:12:56;;;;;;;0.95;0.77;;;15.80;67.90;;;;;;5062815;28;20033;-82
2021/10/01 03:15:23;;;;;;;1.42;0.80;;;15.80;67.90;;;;;;5041156;28;20478;-82
2021/10/01 03:17:49;;;;;;;0.80;0.80;;;15.80;67.90;;;;;;5039468;28;20489;-82
2021/10/01 03:20:16;;;;;;;1.23;0.85;;;15.80;67.90;;;;;;5040091;28;20030;-82
2021/10/01 03:22:42;;;;;;;0.80;0.80;;;15.80;67.90;;;;;;5055920;28;20020;-82
2021/10/01 03:25:11;;;;;;;0.80;0.77;;;15.80;67.90;;;;;;5053155;28;20384;-82
2021/10/01 03:27:37;;;;;;;0.65;0.65;;;15.80;67.90;;;;;;5048687;28;20023;-82
2021/10/01 03:30:07;;;;;;;1.80;0.90;;;15.80;67.90;;;;;;5045783;28;20039;-83
2021/10/01 03:32:34;;;;;;;0.77;0.77;;;15.80;67.90;;;;;;5052177;28;20040;-83
2021/10/01 03:35:03;;;;;;;1.20;0.80;;;15.80;67.80;;;;;;5040392;28;20024;-83
2021/10/01 03:37:30;;;;;;;0.70;0.70;;;15.80;67.90;;;;;;5058863;28;20075;-82
2021/10/01 03:39:58;;;;;;;1.33;0.80;;;15.80;67.80;;;;;;5039472;28;20029;-82
2021/10/01 03:42:24;;;;;;;1.10;0.85;;;15.80;67.80;;;;;;5063432;28;20074;-81
2021/10/01 03:44:51;;;;;;;1.02;0.90;;;15.80;67.90;;;;;;5049677;28;20025;-82
2021/10/01 03:47:18;;;;;;;1.20;0.80;;;15.80;67.90;;;;;;5041955;28;20025;-83
2021/10/01 03:49:44;;;;;;;0.85;0.80;;;15.80;67.90;;;;;;5040320;28;20081;-81
2021/10/01 03:52:12;;;;;;;0.98;0.68;;;15.80;67.80;;;;;;5059635;28;20465;-82
2021/10/01 03:54:42;;;;;;;1.60;0.90;;;15.80;67.90;;;;;;5054120;28;20035;-81
2021/10/01 03:57:08;;;;;;;1.25;0.90;;;15.80;67.90;;;;;;5042740;28;20385;-82
2021/10/01 03:59:34;;;;;;;1.02;0.80;;;15.80;67.90;;;;;;5039881;28;20117;-82
2021/10/01 04:02:01;;;;;;;0.93;0.73;;;15.80;67.80;;;;;;5044074;28;20101;-82
2021/10/01 04:04:26;;;;;;;1.60;0.82;;;15.80;67.80;;;;;;5035231;28;20036;-82
2021/10/01 04:06:53;;;;;;;1.10;0.88;;;15.80;67.80;;;;;;5035557;28;20037;-82
2021/10/01 04:09:19;;;;;;;0.90;0.80;;;15.80;67.90;;;;;;5063493;28;20111;-82
2021/10/01 04:11:46;;;;;;;1.17;0.88;;;15.80;67.90;;;;;;5062951;28;20032;-82
2021/10/01 04:14:13;;;;;;;1.02;0.90;;;15.70;67.80;;;;;;5046779;28;20072;-82
2021/10/01 04:16:39;;;;;;;0.70;0.70;;;15.80;68.10;;;;;;5060522;28;20021;-82
2021/10/01 04:19:05;;;;;;;1.42;0.80;;;15.80;67.80;;;;;;5053545;28;20541;-82
2021/10/01 04:21:31;;;;;;;1.60;0.82;;;15.70;67.80;;;;;;5042393;28;20111;-82
2021/10/01 04:23:57;;;;;;;1.02;0.75;;;15.80;67.80;;;;;;5041359;28;20123;-82
2021/10/01 04:26:49;;;;;;;1.02;0.80;;;15.80;67.80;;;;;;5050080;28;20037;-81
2021/10/01 04:29:15;;;;;;;1.30;0.70;;;15.80;67.90;;;;;;5028190;28;20036;-82
2021/10/01 04:31:41;;;;;;;0.80;0.80;;;15.70;67.80;;;;;;5063019;28;20035;-81
2021/10/01 04:34:07;;;;;;;1.38;1.05;;;15.70;67.70;;;;;;5056972;28;20036;-81
2021/10/01 04:36:34;;;;;;;1.80;1.00;;;15.70;67.80;;;;;;5060348;28;20032;-82
2021/10/01 04:39:01;;;;;;;0.80;0.80;;;15.70;67.80;;;;;;5057580;28;20021;-82
2021/10/01 04:41:28;;;;;;;1.08;0.88;;;15.70;67.80;;;;;;5013420;28;20474;-83
2021/10/01 04:43:55;;;;;;;1.10;0.80;;;15.70;67.80;;;;;;5060588;28;20036;-81
2021/10/01 04:46:41;;;;;;;0.70;0.63;;;15.70;68.50;;;;;;5062730;28;20124;-79
2021/10/01 04:49:07;;;;;;;0.80;0.80;;;15.70;67.80;;;;;;5053687;28;20111;-77
2021/10/01 04:51:33;;;;;;;0.93;0.80;;;15.70;67.70;;;;;;5033551;28;20032;-79
2021/10/01 04:53:58;;;;;;;1.45;0.90;;;15.70;67.80;;;;;;5053604;28;20029;-80
2021/10/01 04:56:25;;;;;;;2.30;0.75;;;15.70;67.80;;;;;;5040111;28;20029;-83
2021/10/01 04:58:53;;;;;;;0.80;0.80;;;15.70;67.80;;;;;;5063725;28;20500;-79
2021/10/01 05:01:37;;;;;;;1.00;0.90;;;15.70;67.80;;;;;;5056944;28;20032;-80
2021/10/01 05:04:23;;;;;;;0.90;0.90;;;15.60;67.60;;;;;;5059444;28;20056;-79
2021/10/01 05:06:57;;;;;;;1.00;0.90;;;15.70;67.70;;;;;;5060247;28;20041;-79
2021/10/01 05:09:23;;;;;;;1.05;0.95;;;15.60;67.60;;;;;;5065763;28;20039;-80
2021/10/01 05:12:07;;;;;;;0.75;0.75;;;15.60;67.70;;;;;;5053108;28;20078;-80
2021/10/01 05:14:51;;;;;;;1.00;0.90;;;15.60;67.70;;;;;;5057355;28;20080;-80
2021/10/01 05:17:39;;;;;;;0.73;0.73;;;15.60;67.70;;;;;;5044156;28;20044;-80
2021/10/01 05:20:23;;;;;;;1.23;0.82;;;15.60;67.70;;;;;;5059454;28;20185;-81
2021/10/01 05:22:58;;;;;;;;;;;15.60;67.70;;;;;;5049580;28;20029;-85
2021/10/01 05:25:26;;;;;;;0.70;0.70;;;15.60;67.70;;;;;;5069472;28;20330;-84
2021/10/01 05:27:54;;;;;;;0.75;0.75;;;15.50;67.60;;;;;;5054894;28;20031;-79
2021/10/01 05:30:21;;;;;;;0.82;0.82;;;15.50;67.70;;;;;;5046813;28;20092;-86
2021/10/01 05:32:46;;;;;;;0.85;0.73;;;15.50;67.80;;;;;;5018352;28;20396;-80
2021/10/01 05:35:12;;;;;;;0.80;0.80;;;15.50;67.80;;;;;;5063511;28;20033;-81
2021/10/01 05:37:38;;;;;;;0.80;0.75;;;15.50;67.80;;;;;;5044308;28;20033;-80
2021/10/01 05:40:05;;;;;;;0.95;0.70;;;15.50;67.80;;;;;;5071346;28;20036;-81
2021/10/01 05:42:32;;;;;;;1.10;0.70;;;15.50;67.80;;;;;;5046546;28;20009;-82
2021/10/01 05:44:58;;;;;;;0.70;0.70;;;15.50;67.80;;;;;;5054873;28;20131;-80
2021/10/01 05:47:47;;;;;;;0.73;0.60;;;15.50;67.70;;;;;;5058697;28;20041;-80
2021/10/01 05:50:33;;;;;;;0.65;0.65;;;15.50;67.80;;;;;;5056203;28;20543;-81
2021/10/01 05:56:22;;;;;;;0.65;0.65;;;15.40;67.70;;;;;;5063036;28;20520;-80
2021/10/01 05:59:11;;;;;;;0.82;0.80;;;15.50;67.70;;;;;;5046533;28;20087;-80
2021/10/01 06:01:37;;;;;;;1.48;0.90;;;15.50;67.80;;;;;;5045666;28;20559;-80
2021/10/01 06:04:03;;;;;;;1.13;0.80;;;15.40;67.80;;;;;;5038836;28;20504;-81
2021/10/01 06:06:29;;;;;;;0.73;0.73;;;15.40;67.80;;;;;;5066839;28;20033;-80
2021/10/01 06:08:55;;;;;;;0.70;0.70;;;15.40;67.80;;;;;;5062751;28;20032;-81
2021/10/01 06:11:20;;;;;;;0.73;0.73;;;15.40;67.80;;;;;;5045570;28;20053;-81
2021/10/01 06:13:46;;;;;;;0.77;0.77;;;15.40;67.80;;;;;;5044400;28;20071;-81
2021/10/01 06:16:12;;;;;;;1.15;0.93;;;15.40;67.80;;;;;;5046929;28;20038;-80
2021/10/01 06:18:38;;;;;;;1.25;0.80;;;15.40;67.80;;;;;;5055481;28;20033;-79
2021/10/01 06:21:03;;;;;;;0.80;0.80;;;15.40;67.80;;;;;;5037465;28;20536;-79
2021/10/01 06:23:34;;;;;;;1.05;0.90;;;15.40;67.80;;;;;;5042443;28;20025;-79
2021/10/01 06:26:01;;;;;;;1.00;0.80;;;15.40;67.80;;;;;;5063520;28;20037;-79
2021/10/01 06:28:28;;;;;;;0.80;0.73;;;15.40;67.80;;;;;;5054972;28;20035;-80
2021/10/01 06:30:55;;;;;;;0.85;0.82;;;15.40;67.90;;;;;;5062732;28;20033;-82
2021/10/01 06:33:21;;;;;;;1.17;0.80;;;15.40;67.90;;;;;;5040078;28;20032;-82
2021/10/01 06:35:47;;;;;;;1.05;0.93;;;15.40;67.90;;;;;;5056772;28;20188;-79
2021/10/01 06:38:12;;;;;;;1.33;0.88;;;15.40;67.90;;;;;;5044254;28;20112;-79
2021/10/01 06:40:38;;;;;;;1.75;0.80;;;15.40;67.90;;;;;;5066303;28;20071;-82
2021/10/01 06:43:09;;;;;;;0.70;0.70;;;15.40;67.90;;;;;;5051597;28;20553;-78
2021/10/01 06:45:36;;;;;;;1.10;0.70;;;15.40;67.90;;;;;;5065569;28;20111;-81
2021/10/01 07:38:50;;;;;;;0.60;0.60;;;15.40;68.20;;;;;;5060959;28;20085;-79
2021/10/01 08:20:33;;;;;;;1.33;0.90;;;15.60;68.40;;;;;;5038107;28;20137;-83
2021/10/01 08:22:59;;;;;;;1.10;1.00;;;15.70;68.40;;;;;;5060883;28;20068;-83
2021/10/01 08:25:25;;;;;;;0.80;0.80;;;15.70;68.50;;;;;;5059080;28;20024;-84
2021/10/01 08:27:51;;;;;;;0.70;0.70;;;15.70;68.50;;;;;;5063507;28;20489;-85
2021/10/01 08:30:17;;;;;;;0.98;0.70;;;15.70;68.50;;;;;;5028021;28;20037;-84
2021/10/01 08:32:43;;;;;;;0.80;0.80;;;15.70;68.50;;;;;;5038334;28;20025;-84
2021/10/01 08:35:11;;;;;;;1.38;0.70;;;15.80;68.50;;;;;;5053578;28;20151;-84
2021/10/01 08:37:39;;;;;;;0.80;0.80;;;15.80;68.50;;;;;;5043786;28;20039;-84
2021/10/01 08:40:06;;;;;;;0.98;0.90;;;15.80;68.40;;;;;;5051566;28;20025;-83
2021/10/01 08:42:45;;;;;;;0.98;0.80;;;15.90;68.40;;;;;;5060098;28;20036;-83
2021/10/01 08:45:12;;;;;;;1.88;1.00;;;15.90;68.40;;;;;;5065485;28;20036;-83
2021/10/01 08:47:39;;;;;;;1.33;0.70;;;15.90;68.30;;;;;;5062995;28;20029;-85
2021/10/01 08:50:07;;;;;;;1.00;0.90;;;15.90;68.30;;;;;;5071425;28;20040;-83
2021/10/01 08:52:34;;;;;;;0.82;0.80;;;15.90;68.30;;;;;;5039464;28;20078;-83
2021/10/01 08:55:00;;;;;;;0.77;0.77;;;16.00;68.30;;;;;;5045386;28;20515;-85
2021/10/01 08:57:26;;;;;;;1.08;0.80;;;16.00;68.30;;;;;;5057524;28;20032;-80
2021/10/01 08:59:52;;;;;;;1.33;0.70;;;16.00;68.30;;;;;;5059094;28;20055;-80
2021/10/01 09:02:18;;;;;;;0.77;0.73;;;16.00;68.30;;;;;;5042538;28;20125;-81
2021/10/01 09:04:44;;;;;;;1.85;0.80;;;16.10;69.00;;;;;;5037679;28;20128;-81
2021/10/01 09:07:10;;;;;;;0.80;0.80;;;16.10;68.30;;;;;;5059414;28;20147;-81
2021/10/01 09:09:40;;;;;;;0.80;0.80;;;16.10;68.30;;;;;;5058467;28;20067;-80
2021/10/01 09:12:07;;;;;;;0.80;0.77;;;16.10;68.30;;;;;;5059688;28;20039;-80
2021/10/01 09:14:45;;;;;;;1.38;0.98;;;16.10;68.30;;;;;;5050074;28;20076;-82
2021/10/01 09:17:14;;;;;;;1.20;0.80;;;16.10;68.40;;;;;;5059690;28;20439;-80
2021/10/01 09:19:41;;;;;;;0.80;0.80;;;16.10;68.20;;;;;;5062326;28;20064;-81
2021/10/01 09:22:07;;;;;;;0.80;0.80;;;16.10;68.30;;;;;;5062424;28;20033;-81
2021/10/01 09:24:35;;;;;;;0.70;0.70;;;16.20;68.30;;;;;;5051052;28;20504;-80
2021/10/01 09:27:01;;;;;;;0.63;0.63;;;16.20;68.30;;;;;;5028080;28;20026;-80
2021/10/01 09:29:31;;;;;;;1.50;0.80;;;16.20;68.30;;;;;;5048781;28;20022;-80
2021/10/01 09:32:09;;;;;;;1.13;0.90;;;16.30;68.30;;;;;;5064189;28;20028;-80
2021/10/01 09:34:43;;;;;;;1.42;0.90;;;16.30;68.30;;;;;;5060771;28;20045;-80
2021/10/01 09:37:13;;;;;;;1.33;0.80;;;16.30;68.30;;;;;;5056630;28;20039;-79
2021/10/01 09:39:44;;;;;;;1.02;0.90;;;16.30;68.30;;;;;;5052431;28;20055;-79
2021/10/01 09:42:22;;;;;;;1.40;0.80;;;16.30;68.20;;;;;;5033608;28;20432;-80
2021/10/01 09:44:49;;;;;;;1.00;0.90;;;16.30;68.20;;;;;;5062047;28;20058;-80
2021/10/01 09:47:18;;;;;;;1.83;0.90;;;16.30;68.20;;;;;;5056314;28;20031;-80
2021/10/01 09:49:44;;;;;;;1.35;0.77;;;16.40;68.30;;;;;;5042362;28;20025;-79
2021/10/01 09:52:11;;;;;;;1.08;0.98;;;16.40;68.20;;;;;;5050376;28;20071;-80
2021/10/01 09:54:38;;;;;;;1.23;0.90;;;16.40;68.20;;;;;;5050022;28;20083;-79
2021/10/01 09:57:07;;;;;;;1.13;0.80;;;16.40;68.20;;;;;;5034295;28;20067;-80
2021/10/01 09:59:35;;;;;;;0.93;0.80;;;16.40;68.30;;;;;;5044240;28;20425;-80
2021/10/01 10:02:04;;;;;;;0.82;0.80;;;16.40;68.30;;;;;;5048408;28;20025;-80
2021/10/01 10:04:54;;;;;;;1.05;0.80;;;16.40;68.20;;;;;;5050625;28;20033;-79
2021/10/01 10:07:24;;;;;;;0.98;0.70;;;16.50;68.30;;;;;;5050022;28;20033;-79
2021/10/01 10:09:53;;;;;;;1.25;0.77;;;16.50;68.20;;;;;;5059794;28;20029;-80
2021/10/01 10:12:22;;;;;;;0.73;0.70;;;16.50;68.30;;;;;;5049977;28;20095;-80
2021/10/01 10:14:54;;;;;;;1.25;0.80;;;16.50;68.30;;;;;;5039469;28;20044;-79
2021/10/01 10:17:23;;;;;;;0.80;0.80;;;16.50;68.30;;;;;;5052823;28;20032;-79
2021/10/01 10:19:52;;;;;;;0.88;0.88;;;16.50;68.20;;;;;;5058826;28;20025;-80
2021/10/01 10:22:19;;;;;;;0.77;0.75;;;16.60;68.20;;;;;;5059298;28;20020;-80
2021/10/01 10:24:46;;;;;;;1.30;0.90;;;16.60;68.20;;;;;;5043997;28;20041;-80
2021/10/01 10:27:12;;;;;;;1.13;0.90;;;16.60;68.20;;;;;;5053614;28;20051;-80
2021/10/01 10:29:43;;;;;;;1.25;1.00;;;16.70;68.20;;;;;;5064460;28;20108;-80
2021/10/01 10:32:12;;;;;;;0.95;0.80;;;16.70;68.30;;;;;;5059622;28;20031;-81
2021/10/01 10:34:50;;;;;;;2.22;0.98;;;16.70;68.20;;;;;;5054450;28;20033;-80
2021/10/01 10:37:17;;;;;;;0.65;0.65;;;16.70;68.30;;;;;;5059736;28;20028;-80
2021/10/01 10:39:47;;;;;;;1.17;0.90;;;16.70;68.20;;;;;;5062677;28;20055;-80
2021/10/01 10:42:16;;;;;;;0.93;0.80;;;16.70;68.20;;;;;;5044840;28;20018;-80
2021/10/01 10:44:54;;;;;;;1.10;0.80;;;16.80;68.20;;;;;;5062472;28;20112;-80
2021/10/01 10:47:43;;;;;;;1.42;1.02;;;16.80;68.30;;;;;;5058730;28;20728;-80
2021/10/01 10:50:21;;;;;;;1.00;0.80;;;16.80;68.30;;;;;;5046808;28;20114;-80
2021/10/01 10:53:09;;;;;;;0.68;0.68;;;16.80;68.20;;;;;;5062049;28;20087;-80
2021/10/01 10:55:41;;;;;;;0.90;0.90;;;16.90;68.40;;;;;;5061712;28;20045;-80
2021/10/01 10:58:26;;;;;;;2.42;0.88;;;16.90;68.30;;;;;;5053879;28;20025;-80
2021/10/01 11:00:56;;;;;;;1.83;0.80;;;16.90;68.40;;;;;;5053178;28;20024;-80
2021/10/01 11:03:23;;;;;;;1.02;0.77;;;17.00;68.30;;;;;;5052671;28;20028;-80
2021/10/01 11:06:11;;;;;;;1.98;0.93;;;17.00;68.30;;;;;;5044726;28;20499;-80
2021/10/01 11:09:12;;;;;;;1.90;0.90;;;17.00;68.50;;;;;;5053322;28;20098;-81
2021/10/01 11:11:40;;;;;;;1.10;0.80;;;17.00;68.50;;;;;;5042581;28;20045;-79
2021/10/01 11:14:15;;;;;;;1.75;0.80;;;17.10;68.40;;;;;;5055418;28;20127;-80
2021/10/01 11:17:05;;;;;;;0.95;0.80;;;17.10;68.50;;;;;;5053661;28;20029;-79
2021/10/01 11:19:39;;;;;;;0.80;0.80;;;17.10;68.30;;;;;;5065414;28;20079;-81
2021/10/01 11:22:30;;;;;;;1.05;0.73;;;17.10;68.30;;;;;;5065472;28;20060;-82
2021/10/01 11:24:58;;;;;;;0.90;0.80;;;17.20;68.50;;;;;;5054649;28;20093;-80
2021/10/01 11:27:24;;;;;;;1.10;0.90;;;17.20;68.30;;;;;;5044369;28;20038;-78
2021/10/01 11:29:50;;;;;;;1.25;0.90;;;17.20;68.30;;;;;;5052648;28;20033;-81
2021/10/01 11:32:24;;;;;;;0.70;0.70;;;17.30;68.40;;;;;;5060047;28;20028;-81
2021/10/01 11:35:02;;;;;;;1.60;0.90;;;17.30;68.30;;;;;;5040810;28;20167;-82
2021/10/01 11:37:31;;;;;;;1.13;0.80;;;17.30;68.30;;;;;;5066083;28;20040;-83
2021/10/01 11:40:11;;;;;;;1.33;0.90;;;17.30;68.30;;;;;;5057918;28;20032;-83
2021/10/01 11:42:40;;;;;;;1.23;0.95;;;17.30;68.30;;;;;;5063553;28;20032;-83
2021/10/01 11:45:18;;;;;;;1.27;0.80;;;17.40;68.20;;;;;;5062049;28;20032;-82
2021/10/01 11:48:07;;;;;;;1.23;0.80;;;17.50;68.30;;;;;;5052810;28;20021;-79
2021/10/01 11:50:39;;;;;;;0.90;0.80;;;17.40;68.20;;;;;;5057081;28;20032;-80
2021/10/01 11:53:35;;;;;;;2.38;1.05;;;17.50;68.20;;;;;;5043412;28;20033;-78
2021/10/01 11:56:04;;;;;;;1.00;0.82;;;17.50;68.20;;;;;;5060675;28;20045;-79
2021/10/01 11:58:32;;;;;;;3.42;1.10;;;17.50;68.20;;;;;;5060668;28;20036;-79
2021/10/01 12:01:16;;;;;;;0.82;0.70;;;17.50;68.10;;;;;;5054294;28;20086;-78
2021/10/01 12:03:50;;;;;;;1.05;0.85;;;17.60;68.20;;;;;;5041723;28;20032;-79
2021/10/01 12:06:37;;;;;;;0.88;0.60;;;17.60;68.20;;;;;;5052900;28;20041;-80
2021/10/01 12:09:06;;;;;;;2.28;0.95;;;17.60;68.20;;;;;;5045644;28;20082;-81
2021/10/01 12:11:38;;;;;;;1.27;0.80;;;17.60;68.10;;;;;;5060105;28;20527;-81
2021/10/01 12:14:15;;;;;;;1.40;0.70;;;17.70;68.10;;;;;;5059715;28;20102;-82
2021/10/01 12:16:53;;;;;;;1.38;0.70;;;17.70;68.20;;;;;;5045328;28;20025;-83
2021/10/01 12:19:24;;;;;;;0.88;0.70;;;17.70;68.10;;;;;;5061051;28;20024;-82
2021/10/01 12:22:07;;;;;;;0.80;0.80;;;17.70;68.10;;;;;;5063158;28;20465;-79
2021/10/01 12:24:53;;;;;;;0.80;0.80;;;17.70;68.90;;;;;;5053040;28;20079;-80
2021/10/01 12:27:44;;;;;;;0.93;0.70;;;17.80;68.30;;;;;;5069459;28;20090;-80
2021/10/01 12:30:11;;;;;;;0.73;0.65;;;17.80;68.20;;;;;;5040527;28;20384;-82
2021/10/01 12:32:37;;;;;;;0.80;0.80;;;17.80;68.20;;;;;;5053792;28;20029;-80
2021/10/01 12:35:05;;;;;;;0.90;0.80;;;17.80;68.20;;;;;;5023167;28;20135;-80
2021/10/01 12:37:39;;;;;;;1.17;0.85;;;17.80;68.20;;;;;;5047205;28;20037;-81
2021/10/01 12:40:05;;;;;;;1.75;0.95;;;17.90;68.30;;;;;;5060346;28;20025;-80
2021/10/01 12:42:34;;;;;;;0.85;0.80;;;17.90;68.20;;;;;;5038461;28;20033;-79
2021/10/01 12:45:07;;;;;;;1.58;0.90;;;17.90;68.20;;;;;;5078752;28;20028;-80
2021/10/01 12:47:39;;;;;;;0.75;0.70;;;17.90;68.20;;;;;;5050887;28;20086;-80
2021/10/01 12:50:10;;;;;;;1.40;0.90;;;17.90;68.20;;;;;;5084489;28;20025;-80
2021/10/01 12:52:38;;;;;;;1.60;0.85;;;18.00;68.20;;;;;;5059095;28;20080;-80
2021/10/01 12:55:06;;;;;;;1.60;1.05;;;17.90;68.20;;;;;;5038102;28;20124;-80
2021/10/01 12:57:44;;;;;;;0.80;0.65;;;18.00;68.20;;;;;;5057877;28;20024;-79
2021/10/01 13:00:32;;;;;;;1.20;0.80;;;18.00;68.10;;;;;;5054715;28;20037;-79
2021/10/01 13:02:58;;;;;;;0.88;0.75;;;18.00;68.20;;;;;;5054902;28;20033;-80
2021/10/01 13:05:26;;;;;;;1.50;0.98;;;18.00;68.00;;;;;;5058778;28;20375;-80
2021/10/01 13:07:58;;;;;;;2.00;1.00;;;18.10;68.10;;;;;;5042356;28;20436;-80
2021/10/01 13:10:43;;;;;;;0.80;0.75;;;18.10;68.10;;;;;;5062516;28;20120;-80
2021/10/01 13:13:16;;;;;;;0.80;0.73;;;18.10;68.10;;;;;;5044562;28;20029;-80
2021/10/01 13:15:49;;;;;;;0.93;0.80;;;18.10;68.00;;;;;;5054753;28;20053;-81
2021/10/01 13:18:17;;;;;;;1.02;0.80;;;18.10;68.00;;;;;;5059304;28;20052;-83
2021/10/01 13:20:54;;;;;;;0.93;0.70;;;18.10;68.00;;;;;;5061837;28;20063;-80
2021/10/01 13:23:34;;;;;;;1.42;0.90;;;18.10;68.00;;;;;;5050734;28;20480;-81
2021/10/01 13:26:08;;;;;;;2.00;0.85;;;18.20;68.00;;;;;;5057080;28;20119;-80
2021/10/01 13:28:36;;;;;;;1.35;0.70;;;18.20;68.00;;;;;;5039501;28;20121;-81
2021/10/01 13:31:02;;;;;;;1.20;0.85;;;18.20;68.00;;;;;;5042252;28;20025;-80
2021/10/01 13:33:28;;;;;;;2.17;0.95;;;18.20;67.90;;;;;;5042182;28;20055;-80
2021/10/01 13:35:56;;;;;;;1.15;0.80;;;18.20;67.90;;;;;;5054092;28;20106;-80
2021/10/01 13:38:31;;;;;;;1.05;0.95;;;18.20;67.90;;;;;;5062670;28;20021;-80
2021/10/01 13:40:58;;;;;;;3.03;0.80;;;18.30;68.00;;;;;;5062018;28;20540;-81
2021/10/01 13:43:25;;;;;;;1.23;0.90;;;18.30;67.90;;;;;;5064325;28;20479;-80
2021/10/01 13:45:50;;;;;;;1.00;0.80;;;18.30;67.90;;;;;;5058518;28;20029;-81
2021/10/01 13:48:16;;;;;;;1.00;0.80;;;18.30;67.80;;;;;;5051688;28;20029;-82
2021/10/01 13:50:42;;;;;;;0.98;0.73;;;18.30;67.80;;;;;;5054467;28;20028;-81
2021/10/01 13:53:10;;;;;;;1.67;0.90;;;18.40;67.80;;;;;;5081289;28;20093;-81
2021/10/01 13:55:40;;;;;;;0.80;0.70;;;18.40;67.80;;;;;;5061252;28;20194;-80
2021/10/01 13:58:06;;;;;;;0.80;0.70;;;18.40;67.80;;;;;;5065006;28;20082;-80
2021/10/01 14:00:32;;;;;;;0.70;0.70;;;18.40;67.80;;;;;;5054709;28;20097;-80
2021/10/01 14:02:57;;;;;;;0.95;0.65;;;18.40;67.70;;;;;;5045783;28;20048;-80
2021/10/01 14:05:23;;;;;;;0.88;0.70;;;18.40;67.70;;;;;;5045537;28;20025;-79
2021/10/01 14:07:49;;;;;;;1.10;0.70;;;18.40;67.70;;;;;;5055004;28;20477;-81
2021/10/01 14:10:22;;;;;;;1.05;0.80;;;18.50;67.70;;;;;;5030666;28;20405;-80
2021/10/01 14:12:48;;;;;;;0.60;0.60;;;18.50;67.70;;;;;;5062839;28;20107;-80
2021/10/01 14:15:18;;;;;;;1.98;0.93;;;18.50;67.70;;;;;;5030476;28;20477;-82
2021/10/01 14:17:45;;;;;;;0.70;0.70;;;18.50;67.60;;;;;;5048587;28;20039;-79
2021/10/01 14:20:15;;;;;;;1.70;0.80;;;18.50;67.60;;;;;;5051081;28;20021;-80
2021/10/01 14:22:42;;;;;;;1.52;0.70;;;18.50;67.60;;;;;;5068851;28;20470;-80
2021/10/01 14:25:09;;;;;;;1.58;0.90;;;18.60;67.60;;;;;;5068019;28;20033;-81
2021/10/01 14:27:36;;;;;;;0.98;0.60;;;18.60;67.60;;;;;;5043916;28;20500;-80
2021/10/01 14:30:04;;;;;;;0.90;0.77;;;18.60;67.50;;;;;;5051263;28;20037;-83
2021/10/01 14:32:30;;;;;;;0.80;0.73;;;18.60;67.60;;;;;;5045620;28;20052;-79
2021/10/01 14:34:57;;;;;;;1.27;0.60;;;18.60;67.50;;;;;;5056718;28;20067;-79
2021/10/01 14:37:23;;;;;;;0.95;0.90;;;18.60;67.50;;;;;;5055627;28;20059;-80
2021/10/01 14:39:49;;;;;;;1.50;0.95;;;18.60;67.40;;;;;;5061439;28;20025;-79